Terminal Aerodrome Forecast
Issued by NWS

Home | Current Version | Previous Version | Text Only | Print | Product List | Glossary On
Versions: 1 2 3 4 5 6 7 8 9 10 11 12 13 14 15 16
356
FTPA31 PHFO 022105 AAB
TAFHNY
TAF AMD
PHNY 022105Z 0221/0318 13015G22KT P6SM VCSH SCT025 BKN035 BKN200
      TEMPO 0221/0224 -SHRA BKN015
     FM030300 04007KT P6SM SCT025 SCT035=

USA.gov is the U.S. government's official web portal to all federal, state and local government web resources and services.